createdAt,value
2023-04-24T00:00:02.286Z,13.55
2023-04-24T00:02:30.193Z,13.51
2023-04-24T00:05:03.348Z,13.47
2023-04-24T00:07:31.345Z,13.45
2023-04-24T00:09:59.448Z,13.42
2023-04-24T00:12:27.827Z,13.41
2023-04-24T00:14:55.795Z,13.37
2023-04-24T00:17:23.758Z,13.37
2023-04-24T00:19:52.383Z,13.38
2023-04-24T00:22:21.815Z,13.37
2023-04-24T00:24:49.718Z,13.37
2023-04-24T00:27:17.599Z,13.38
2023-04-24T00:29:45.545Z,13.37
2023-04-24T00:32:13.540Z,13.38
2023-04-24T00:34:41.431Z,13.39
2023-04-24T00:37:09.321Z,13.36
2023-04-24T00:39:38.583Z,13.33
2023-04-24T00:42:07.398Z,13.29
2023-04-24T00:44:35.388Z,13.22
2023-04-24T00:47:03.334Z,13.14
2023-04-24T00:49:31.580Z,13.07
2023-04-24T00:52:00.394Z,13.00
2023-04-24T00:54:28.313Z,12.91
2023-04-24T00:56:57.999Z,12.83
2023-04-24T00:59:25.957Z,12.75
2023-04-24T01:01:53.925Z,12.68
2023-04-24T01:04:22.099Z,12.60
2023-04-24T01:06:51.552Z,12.54
2023-04-24T01:09:21.185Z,12.49
2023-04-24T01:11:49.060Z,12.43
2023-04-24T01:14:18.384Z,12.39
2023-04-24T01:16:46.313Z,12.35
2023-04-24T01:19:14.267Z,12.36
2023-04-24T01:21:43.117Z,12.44
2023-04-24T01:24:12.393Z,12.55
2023-04-24T01:26:40.304Z,12.65
2023-04-24T01:29:08.231Z,12.75
2023-04-24T01:31:36.361Z,12.84
2023-04-24T01:34:04.467Z,12.93
2023-04-24T01:36:32.487Z,13.01
2023-04-24T01:39:00.498Z,13.09
2023-04-24T01:41:29.876Z,13.13
2023-04-24T01:43:57.744Z,13.13
2023-04-24T01:46:25.669Z,13.17
2023-04-24T01:48:53.659Z,13.17
2023-04-24T01:51:21.595Z,13.15
2023-04-24T01:53:49.489Z,13.09
2023-04-24T01:56:17.326Z,13.03
2023-04-24T01:58:46.709Z,12.97
2023-04-24T02:01:17.732Z,12.94
2023-04-24T02:03:45.971Z,12.92
2023-04-24T02:06:14.076Z,12.87
2023-04-24T02:08:42.032Z,12.92
2023-04-24T02:11:11.003Z,12.95
2023-04-24T02:13:38.883Z,12.97
2023-04-24T02:16:08.370Z,12.98
2023-04-24T02:18:36.300Z,12.98
2023-04-24T02:21:04.367Z,12.95
2023-04-24T02:23:32.259Z,12.91
2023-04-24T02:26:00.214Z,12.90
2023-04-24T02:28:28.082Z,12.84
2023-04-24T02:30:55.971Z,12.81
2023-04-24T02:33:25.293Z,12.78
2023-04-24T02:35:53.311Z,12.76
2023-04-24T02:38:21.217Z,12.74
2023-04-24T02:40:49.449Z,12.70
2023-04-24T02:43:17.311Z,12.68
2023-04-24T02:45:45.287Z,12.67
2023-04-24T02:48:13.200Z,12.62
2023-04-24T02:50:42.455Z,12.58
2023-04-24T02:53:10.323Z,12.51
2023-04-24T02:55:38.260Z,12.44
2023-04-24T02:58:06.918Z,12.37
2023-04-24T03:00:35.050Z,12.29
2023-04-24T03:03:03.907Z,12.21
2023-04-24T03:05:32.881Z,12.14
2023-04-24T03:08:02.161Z,12.11
2023-04-24T03:10:30.042Z,12.06
2023-04-24T03:12:57.951Z,12.05
2023-04-24T03:15:25.875Z,12.01
2023-04-24T03:17:55.455Z,12.02
2023-04-24T03:20:24.833Z,12.01
2023-04-24T03:22:52.726Z,12.00
2023-04-24T03:25:22.199Z,12.00
2023-04-24T03:27:50.087Z,11.97
2023-04-24T03:30:17.987Z,11.93
2023-04-24T03:32:45.964Z,11.87
2023-04-24T03:35:13.847Z,11.81
2023-04-24T03:37:41.670Z,11.75
2023-04-24T03:40:11.020Z,11.69
2023-04-24T03:42:40.309Z,11.63
2023-04-24T03:45:09.509Z,11.59
2023-04-24T03:47:37.519Z,11.54
2023-04-24T03:50:06.094Z,11.54
2023-04-24T03:52:34.017Z,11.52
2023-04-24T03:55:01.907Z,11.50
2023-04-24T03:57:29.752Z,11.53
2023-04-24T03:59:59.018Z,11.53
2023-04-24T04:02:26.980Z,11.53
2023-04-24T04:04:55.048Z,11.50
2023-04-24T04:07:23.005Z,11.47
2023-04-24T04:09:50.985Z,11.39
2023-04-24T04:12:18.864Z,11.32
2023-04-24T04:14:46.754Z,11.27
2023-04-24T04:17:16.169Z,11.26
2023-04-24T04:19:44.348Z,11.25
2023-04-24T04:22:12.554Z,11.28
2023-04-24T04:24:41.712Z,11.33
2023-04-24T04:27:10.182Z,11.37
2023-04-24T04:29:38.114Z,11.37
2023-04-24T04:32:06.266Z,11.33
2023-04-24T04:34:35.625Z,11.24
2023-04-24T04:37:03.511Z,11.31
2023-04-24T04:39:31.683Z,11.31
2023-04-24T04:41:59.650Z,11.36
2023-04-24T04:44:30.244Z,11.38
2023-04-24T04:46:58.470Z,11.39
2023-04-24T04:49:26.648Z,11.41
2023-04-24T04:51:55.902Z,11.44
2023-04-24T04:54:23.754Z,11.46
2023-04-24T04:56:52.361Z,11.51
2023-04-24T04:59:20.319Z,11.51
2023-04-24T05:01:48.203Z,11.58
2023-04-24T05:04:16.311Z,11.60
2023-04-24T05:06:44.502Z,11.62
2023-04-24T05:09:13.738Z,11.65
2023-04-24T05:11:41.605Z,11.66
2023-04-24T05:14:09.515Z,11.68
2023-04-24T05:16:38.087Z,11.71
2023-04-24T05:19:06.029Z,11.74
2023-04-24T05:21:33.895Z,11.78
2023-04-24T05:24:02.005Z,11.81
2023-04-24T05:26:31.662Z,11.82
2023-04-24T05:28:59.559Z,11.83
2023-04-24T05:31:27.581Z,11.89
2023-04-24T05:33:55.479Z,11.93
2023-04-24T05:36:23.338Z,11.97
2023-04-24T05:38:51.317Z,12.03
2023-04-24T05:41:19.262Z,12.08
2023-04-24T05:43:48.494Z,12.10
2023-04-24T05:46:16.493Z,12.15
2023-04-24T05:48:44.512Z,12.20
2023-04-24T05:51:12.399Z,12.21
2023-04-24T05:53:40.413Z,12.15
2023-04-24T05:56:08.289Z,12.14
2023-04-24T05:58:36.512Z,12.14
2023-04-24T06:01:05.835Z,12.18
2023-04-24T06:03:34.017Z,12.25
2023-04-24T06:06:02.060Z,12.34
2023-04-24T06:08:30.258Z,12.39
2023-04-24T06:10:58.124Z,12.45
2023-04-24T06:13:26.149Z,12.51
2023-04-24T06:15:54.619Z,12.50
2023-04-24T06:18:24.053Z,12.50
2023-04-24T06:20:52.835Z,12.51
2023-04-24T06:23:20.793Z,12.57
2023-04-24T06:25:48.676Z,12.68
2023-04-24T06:28:16.660Z,12.79
2023-04-24T06:30:44.802Z,12.89
2023-04-24T06:33:19.961Z,12.95
2023-04-24T06:35:51.197Z,13.02
2023-04-24T06:38:19.074Z,13.08
2023-04-24T06:40:47.332Z,13.13
2023-04-24T06:43:16.009Z,13.19
2023-04-24T06:45:44.895Z,13.25
2023-04-24T06:48:12.941Z,13.30
2023-04-24T06:50:40.952Z,13.31
2023-04-24T06:53:12.074Z,13.32
2023-04-24T06:55:39.948Z,13.32
2023-04-24T06:58:08.133Z,13.32
2023-04-24T07:00:36.098Z,13.33
2023-04-24T07:03:04.262Z,13.34
2023-04-24T07:05:32.128Z,13.38
2023-04-24T07:08:00.452Z,13.40
2023-04-24T07:10:30.240Z,13.41
2023-04-24T07:12:58.200Z,13.44
2023-04-24T07:15:26.158Z,13.46
2023-04-24T07:17:54.079Z,13.51
2023-04-24T07:20:22.139Z,13.55
2023-04-24T07:22:50.494Z,13.62
2023-04-24T07:25:18.514Z,13.81
2023-04-24T07:27:47.995Z,14.02
2023-04-24T07:30:16.220Z,14.20
2023-04-24T07:32:44.163Z,14.37
2023-04-24T07:35:12.196Z,14.52
2023-04-24T07:37:40.090Z,14.70
2023-04-24T07:40:09.232Z,14.99
2023-04-24T07:42:37.567Z,15.37
2023-04-24T07:45:14.612Z,15.63
2023-04-24T07:47:44.898Z,15.76
2023-04-24T07:50:12.965Z,15.81
2023-04-24T07:52:40.911Z,15.74
2023-04-24T07:55:09.417Z,15.67
2023-04-24T07:57:37.453Z,15.63
2023-04-24T08:00:06.720Z,15.62
2023-04-24T08:02:36.126Z,15.70
2023-04-24T08:05:05.042Z,15.82
2023-04-24T08:07:33.340Z,15.93
2023-04-24T08:10:01.441Z,16.01
2023-04-24T08:12:30.472Z,16.10
2023-04-24T08:14:58.418Z,16.17
2023-04-24T08:17:27.153Z,16.26
2023-04-24T08:20:02.318Z,16.38
2023-04-24T08:22:30.416Z,16.51
2023-04-24T08:24:58.595Z,16.55
2023-04-24T08:27:26.686Z,16.58
2023-04-24T08:29:57.267Z,16.59
2023-04-24T08:32:25.397Z,16.61
2023-04-24T08:34:53.786Z,16.64
2023-04-24T08:37:23.012Z,16.71
2023-04-24T08:39:51.231Z,16.81
2023-04-24T08:42:19.453Z,16.91
2023-04-24T08:44:47.390Z,16.97
2023-04-24T08:47:16.340Z,17.03
2023-04-24T08:49:44.669Z,17.09
2023-04-24T08:52:14.079Z,17.18
2023-04-24T08:54:44.567Z,17.21
2023-04-24T08:57:12.626Z,17.30
2023-04-24T08:59:40.543Z,17.37
2023-04-24T09:02:08.813Z,17.48
2023-04-24T09:04:36.968Z,17.49
2023-04-24T09:07:05.054Z,17.48
2023-04-24T09:09:33.072Z,17.36
2023-04-24T09:12:03.140Z,17.36
2023-04-24T09:14:32.977Z,17.43
2023-04-24T09:17:00.905Z,17.53
2023-04-24T09:19:28.831Z,17.63
2023-04-24T09:21:56.707Z,17.69
2023-04-24T09:24:24.600Z,17.81
2023-04-24T09:26:59.450Z,18.03
2023-04-24T09:29:28.715Z,18.20
2023-04-24T09:31:56.653Z,18.25
2023-04-24T09:34:25.143Z,18.36
2023-04-24T09:36:53.150Z,18.55
2023-04-24T09:39:21.801Z,18.72
2023-04-24T09:41:50.602Z,18.76
2023-04-24T09:44:19.241Z,18.95
2023-04-24T09:46:51.982Z,18.92
2023-04-24T09:49:24.385Z,18.84
2023-04-24T09:51:52.309Z,18.81
2023-04-24T09:54:21.673Z,18.80
2023-04-24T09:56:50.263Z,18.86
2023-04-24T09:59:18.924Z,18.85
2023-04-24T10:01:49.753Z,18.78
2023-04-24T10:04:19.503Z,18.73
2023-04-24T10:06:47.606Z,18.64
2023-04-24T10:09:15.684Z,18.60
2023-04-24T10:11:44.190Z,18.57
2023-04-24T10:14:13.017Z,18.52
2023-04-24T10:16:41.596Z,18.52
2023-04-24T10:19:11.867Z,18.46
2023-04-24T10:21:43.515Z,18.40
2023-04-24T10:24:11.498Z,18.30
2023-04-24T10:26:39.806Z,18.15
2023-04-24T10:29:10.786Z,18.02
2023-04-24T10:31:38.868Z,17.83
2023-04-24T10:34:07.024Z,17.62
2023-04-24T10:36:36.844Z,17.40
2023-04-24T10:39:06.027Z,17.07
2023-04-24T10:41:36.131Z,16.42
2023-04-24T10:44:07.754Z,15.68
2023-04-24T10:46:35.703Z,15.06
2023-04-24T10:49:07.641Z,14.61
2023-04-24T10:51:50.273Z,14.29
2023-04-24T10:54:26.609Z,14.07
2023-04-24T10:56:54.619Z,13.89
2023-04-24T10:59:29.094Z,13.69
2023-04-24T11:01:57.271Z,13.38
2023-04-24T11:04:31.870Z,13.42
2023-04-24T11:07:01.629Z,13.35
2023-04-24T11:09:30.496Z,13.32
2023-04-24T11:12:07.732Z,13.30
2023-04-24T11:15:03.288Z,13.24
2023-04-24T11:17:32.782Z,13.20
2023-04-24T11:20:15.466Z,13.20
2023-04-24T11:22:55.675Z,13.26
2023-04-24T11:25:24.237Z,13.29
2023-04-24T11:27:52.235Z,13.30
2023-04-24T11:30:20.793Z,13.33
2023-04-24T11:32:49.997Z,13.35
2023-04-24T11:35:19.498Z,13.40
2023-04-24T11:38:08.055Z,13.53
2023-04-24T11:40:39.134Z,13.61
2023-04-24T11:43:08.164Z,13.66
2023-04-24T11:45:36.430Z,13.73
2023-04-24T11:48:05.299Z,13.77
2023-04-24T11:50:33.203Z,13.81
2023-04-24T11:53:01.555Z,13.79
2023-04-24T11:55:30.403Z,13.76
2023-04-24T11:58:00.774Z,13.69
2023-04-24T12:00:29.576Z,13.77
2023-04-24T12:03:06.811Z,13.77
2023-04-24T12:05:37.178Z,13.76
2023-04-24T12:08:05.994Z,13.90
2023-04-24T12:10:37.177Z,13.98
2023-04-24T12:13:06.571Z,13.95
2023-04-24T12:15:36.320Z,14.04
2023-04-24T12:18:05.741Z,14.16
2023-04-24T12:20:34.342Z,14.26
2023-04-24T12:23:02.900Z,14.35
2023-04-24T12:25:31.459Z,14.43
2023-04-24T12:28:12.718Z,14.51
2023-04-24T12:30:42.530Z,14.52
2023-04-24T12:33:10.538Z,14.51
2023-04-24T12:35:38.520Z,14.60
2023-04-24T12:38:09.636Z,14.70
2023-04-24T12:40:40.647Z,14.81
2023-04-24T12:43:17.283Z,14.88
2023-04-24T12:45:45.892Z,14.90
2023-04-24T12:48:15.226Z,15.07
2023-04-24T12:50:46.040Z,15.21
2023-04-24T12:53:14.662Z,15.31
2023-04-24T12:55:42.559Z,15.37
2023-04-24T12:58:10.505Z,15.45
2023-04-24T13:00:40.463Z,15.43
2023-04-24T13:03:08.701Z,15.36
2023-04-24T13:05:36.664Z,15.28
2023-04-24T13:08:04.538Z,15.18
2023-04-24T13:10:32.434Z,15.14
2023-04-24T13:13:01.337Z,15.06
2023-04-24T13:15:29.279Z,14.98
2023-04-24T13:17:58.611Z,14.89
2023-04-24T13:20:27.094Z,14.83
2023-04-24T13:22:55.000Z,14.77
2023-04-24T13:25:24.703Z,14.63
2023-04-24T13:27:52.736Z,14.49
2023-04-24T13:30:20.695Z,14.41
2023-04-24T13:32:48.613Z,14.34
2023-04-24T13:35:17.978Z,14.28
2023-04-24T13:37:45.845Z,14.25
2023-04-24T13:40:13.745Z,14.22
2023-04-24T13:42:42.151Z,14.18
2023-04-24T13:45:24.123Z,14.20
2023-04-24T13:47:53.509Z,14.25
2023-04-24T13:50:23.033Z,14.19
2023-04-24T13:52:50.896Z,14.37
2023-04-24T13:55:18.969Z,14.28
2023-04-24T13:57:46.907Z,14.40
2023-04-24T14:00:19.005Z,14.42
2023-04-24T14:02:47.143Z,14.50
2023-04-24T14:05:15.192Z,14.57
2023-04-24T14:07:44.654Z,14.63
2023-04-24T14:10:12.891Z,14.74
2023-04-24T14:12:41.231Z,14.80
2023-04-24T14:15:11.510Z,14.82
2023-04-24T14:17:39.547Z,14.84
2023-04-24T14:20:10.105Z,14.92
2023-04-24T14:22:38.036Z,14.99
2023-04-24T14:25:08.683Z,14.98
2023-04-24T14:27:37.119Z,15.13
2023-04-24T14:30:05.885Z,15.21
2023-04-24T14:32:33.942Z,15.35
2023-04-24T14:37:29.743Z,15.53
2023-04-24T14:40:14.817Z,15.65
2023-04-24T14:42:47.126Z,15.78
2023-04-24T14:45:15.854Z,15.93
2023-04-24T14:47:43.798Z,16.01
2023-04-24T14:50:13.449Z,16.05
2023-04-24T14:52:41.526Z,16.06
2023-04-24T14:55:10.536Z,16.04
2023-04-24T14:57:38.436Z,15.95
2023-04-24T15:00:09.777Z,15.84
2023-04-24T15:02:41.009Z,15.70
2023-04-24T15:05:10.078Z,15.54
2023-04-24T15:07:38.237Z,15.46
2023-04-24T15:10:06.765Z,15.48
2023-04-24T15:12:34.712Z,15.46
2023-04-24T15:15:02.595Z,15.51
2023-04-24T15:17:31.997Z,15.55
2023-04-24T15:20:00.539Z,15.61
2023-04-24T15:22:28.448Z,15.72
2023-04-24T15:24:57.107Z,15.82
2023-04-24T15:27:25.464Z,15.93
2023-04-24T15:29:54.577Z,16.03
2023-04-24T15:32:22.748Z,16.20
2023-04-24T15:35:04.825Z,16.28
2023-04-24T15:37:35.715Z,16.32
2023-04-24T15:40:05.214Z,16.53
2023-04-24T15:42:33.137Z,16.64
2023-04-24T15:45:01.146Z,16.75
2023-04-24T15:47:29.100Z,16.78
2023-04-24T15:49:58.403Z,16.76
2023-04-24T15:52:26.439Z,16.82
2023-04-24T15:54:57.289Z,17.04
2023-04-24T15:57:25.307Z,17.50
2023-04-24T15:59:53.207Z,18.00
2023-04-24T16:02:21.408Z,18.51
2023-04-24T16:04:50.141Z,18.84
2023-04-24T16:07:19.716Z,19.12
2023-04-24T16:09:47.617Z,19.13
2023-04-24T16:12:15.824Z,18.88
2023-04-24T16:14:43.764Z,18.65
2023-04-24T16:17:11.691Z,18.45
2023-04-24T16:19:39.826Z,18.14
2023-04-24T16:22:07.732Z,17.85
2023-04-24T16:24:37.018Z,17.66
2023-04-24T16:27:06.630Z,17.51
2023-04-24T16:29:34.574Z,17.50
2023-04-24T16:32:02.520Z,17.52
2023-04-24T16:34:30.456Z,17.48
2023-04-24T16:36:58.502Z,17.54
2023-04-24T16:39:27.169Z,17.46
2023-04-24T16:41:59.013Z,17.47
2023-04-24T16:44:28.595Z,17.79
2023-04-24T16:46:56.857Z,18.63
2023-04-24T16:49:25.019Z,19.29
2023-04-24T16:51:53.018Z,19.57
2023-04-24T16:54:21.173Z,19.82
2023-04-24T16:56:49.534Z,19.90
2023-04-24T16:59:18.854Z,20.07
2023-04-24T17:01:47.093Z,20.63
2023-04-24T17:04:15.133Z,21.11
2023-04-24T17:06:43.169Z,21.33
2023-04-24T17:09:12.134Z,21.14
2023-04-24T17:11:40.004Z,20.45
2023-04-24T17:14:07.898Z,19.85
2023-04-24T17:16:37.934Z,19.16
2023-04-24T17:19:06.136Z,18.54
2023-04-24T17:21:34.216Z,18.08
2023-04-24T17:24:02.144Z,17.64
2023-04-24T17:26:32.219Z,17.32
2023-04-24T17:29:00.395Z,17.22
2023-04-24T17:31:28.373Z,17.31
2023-04-24T17:33:57.913Z,17.31
2023-04-24T17:36:25.842Z,17.19
2023-04-24T17:38:53.702Z,16.99
2023-04-24T17:41:21.685Z,16.81
2023-04-24T17:43:49.629Z,16.54
2023-04-24T17:46:17.730Z,16.33
2023-04-24T17:48:47.040Z,16.07
2023-04-24T17:51:18.257Z,15.86
2023-04-24T17:53:46.240Z,15.71
2023-04-24T17:56:14.106Z,15.55
2023-04-24T17:58:41.961Z,15.34
2023-04-24T18:01:09.884Z,15.22
2023-04-24T18:03:38.483Z,15.07
2023-04-24T18:06:07.260Z,14.99
2023-04-24T18:08:36.515Z,14.95
2023-04-24T18:11:04.433Z,14.89
2023-04-24T18:13:32.433Z,14.91
2023-04-24T18:16:00.616Z,14.93
2023-04-24T18:18:28.485Z,14.94
2023-04-24T18:20:56.708Z,14.94
2023-04-24T18:23:24.618Z,14.98
2023-04-24T18:25:53.962Z,15.06
2023-04-24T18:28:22.018Z,15.16
2023-04-24T18:30:50.103Z,15.15
2023-04-24T18:33:19.011Z,15.11
2023-04-24T18:35:47.006Z,14.98
2023-04-24T18:38:14.853Z,14.84
2023-04-24T18:40:42.730Z,14.71
2023-04-24T18:43:12.062Z,14.58
2023-04-24T18:45:42.861Z,14.48
2023-04-24T18:48:10.751Z,14.37
2023-04-24T18:50:40.768Z,14.29
2023-04-24T18:53:09.861Z,14.18
2023-04-24T18:55:37.879Z,14.11
2023-04-24T18:58:06.173Z,14.07
2023-04-24T19:00:35.491Z,14.02
2023-04-24T19:03:03.632Z,13.99
2023-04-24T19:05:31.826Z,13.97
2023-04-24T19:08:00.029Z,14.00
2023-04-24T19:10:29.085Z,14.02
2023-04-24T19:12:57.513Z,14.01
2023-04-24T19:15:25.572Z,13.98
2023-04-24T19:17:55.258Z,13.97
2023-04-24T19:20:23.344Z,13.90
2023-04-24T19:22:51.204Z,13.83
2023-04-24T19:25:19.278Z,13.75
2023-04-24T19:27:47.222Z,13.65
2023-04-24T19:30:15.440Z,13.62
2023-04-24T19:32:43.389Z,13.59
2023-04-24T19:35:12.801Z,13.53
2023-04-24T19:37:40.674Z,13.53
2023-04-24T19:40:09.689Z,13.55
2023-04-24T19:42:43.741Z,13.62
2023-04-24T19:45:12.997Z,13.67
2023-04-24T19:47:40.968Z,13.68
2023-04-24T19:50:09.365Z,13.74
2023-04-24T19:52:38.710Z,13.77
2023-04-24T19:55:07.401Z,13.75
2023-04-24T19:57:35.258Z,13.77
2023-04-24T20:00:03.196Z,13.74
2023-04-24T20:02:32.018Z,13.74
2023-04-24T20:05:00.130Z,13.73
2023-04-24T20:07:28.091Z,13.76
2023-04-24T20:09:57.368Z,13.78
2023-04-24T20:12:25.310Z,13.82
2023-04-24T20:14:53.188Z,13.84
2023-04-24T20:17:21.161Z,13.85
2023-04-24T20:19:49.106Z,13.88
2023-04-24T20:22:16.993Z,13.86
2023-04-24T20:24:46.025Z,13.88
2023-04-24T20:27:15.304Z,13.86
2023-04-24T20:29:43.301Z,13.84
2023-04-24T20:32:11.268Z,13.80
2023-04-24T20:34:39.133Z,13.74
2023-04-24T20:37:07.153Z,13.65
2023-04-24T20:39:35.096Z,13.58
2023-04-24T20:42:02.970Z,13.51
2023-04-24T20:44:32.237Z,13.44
2023-04-24T20:47:00.218Z,13.42
2023-04-24T20:49:28.216Z,13.40
2023-04-24T20:51:56.287Z,13.38
2023-04-24T20:54:24.172Z,13.37
2023-04-24T20:56:52.029Z,13.35
2023-04-24T20:59:19.919Z,13.32
2023-04-24T21:01:50.642Z,13.29
2023-04-24T21:04:18.584Z,13.25
2023-04-24T21:06:46.480Z,13.24
2023-04-24T21:09:14.357Z,13.28
2023-04-24T21:11:43.068Z,13.33
2023-04-24T21:14:11.170Z,13.39
2023-04-24T21:16:39.108Z,13.43
2023-04-24T21:19:08.487Z,13.45
2023-04-24T21:21:36.371Z,13.44
2023-04-24T21:24:04.497Z,13.46
2023-04-24T21:26:32.405Z,13.53
2023-04-24T21:29:00.377Z,13.57
2023-04-24T21:31:28.267Z,13.56
2023-04-24T21:33:56.301Z,13.59
2023-04-24T21:36:25.590Z,13.63
2023-04-24T21:38:53.466Z,13.67
2023-04-24T21:41:21.406Z,13.69
2023-04-24T21:43:50.779Z,13.69
2023-04-24T21:46:18.968Z,13.69
2023-04-24T21:48:46.900Z,13.70
2023-04-24T21:51:16.590Z,13.72
2023-04-24T21:53:45.898Z,13.71
2023-04-24T21:56:13.790Z,13.66
2023-04-24T21:58:41.716Z,13.60
2023-04-24T22:01:10.305Z,13.55
2023-04-24T22:03:38.368Z,13.50
2023-04-24T22:06:06.479Z,13.45
2023-04-24T22:08:34.350Z,13.42
2023-04-24T22:11:05.662Z,13.36
2023-04-24T22:13:36.975Z,13.32
2023-04-24T22:16:05.125Z,13.28
2023-04-24T22:18:46.176Z,13.24
2023-04-24T22:21:15.337Z,13.26
2023-04-24T22:23:43.198Z,13.27
2023-04-24T22:26:12.442Z,13.29
2023-04-24T22:28:40.412Z,13.30
2023-04-24T22:31:08.365Z,13.31
2023-04-24T22:33:36.309Z,13.35
2023-04-24T22:36:04.252Z,13.37
2023-04-24T22:38:32.119Z,13.40
2023-04-24T22:41:00.923Z,13.41
2023-04-24T22:43:30.192Z,13.42
2023-04-24T22:45:58.048Z,13.44
2023-04-24T22:48:25.959Z,13.45
2023-04-24T22:50:53.860Z,13.46
2023-04-24T22:53:23.106Z,13.43
2023-04-24T22:55:51.057Z,13.43
2023-04-24T22:58:18.946Z,13.40
2023-04-24T23:00:48.219Z,13.35
2023-04-24T23:03:16.222Z,13.31
2023-04-24T23:05:44.293Z,13.25
2023-04-24T23:08:12.174Z,13.18
2023-04-24T23:10:40.084Z,13.10
2023-04-24T23:13:08.114Z,13.06
2023-04-24T23:15:36.160Z,12.99
2023-04-24T23:18:05.665Z,12.95
2023-04-24T23:20:33.607Z,12.89
2023-04-24T23:23:01.865Z,12.87
2023-04-24T23:25:29.938Z,12.85
2023-04-24T23:27:57.847Z,12.88
2023-04-24T23:30:25.738Z,12.88
2023-04-24T23:32:53.603Z,12.90
2023-04-24T23:35:22.970Z,12.95
2023-04-24T23:37:50.918Z,12.99
2023-04-24T23:40:18.828Z,13.03
2023-04-24T23:42:53.982Z,13.02
2023-04-24T23:45:27.972Z,12.97
2023-04-24T23:47:56.702Z,12.87
2023-04-24T23:50:26.061Z,12.90
2023-04-24T23:52:53.940Z,12.84
2023-04-24T23:55:21.861Z,12.80
2023-04-24T23:57:49.729Z,12.75
